Ultra Colonsay — 3EVT8 — position and weather

sailwx.info

Track history (hours):
 
Tides and Currents Weather Stations Pressure Air Temp Water Temp Dewpoint Dewpoint Depression Visibility Wind Speed Wind Dir Waves Ship Positions

Ultra Colonsay

Last reported at 2018-Jan-31 15:12 UTC. Time now 2018-Feb-20 04:00 UTC.
Position N 40°57' E 001°38'.
Warning: this ship's position is 19 days out of date.

Length 200 m; draft 12.4 m.

Type: Cargo ship. MMSI: 371011000.

Date/timePositionNaut miles runAvg speedWind from/ knotsBaromVisibWave heightAir tempDewpointWater temp
2018-Jan-31 15:12N 40°57' E 001°38'211.7
2018-Jan-31 15:00N 40°57' E 001°41'712.0
2018-Jan-31 14:23N 40°54' E 001°50'61912.1
2018-Jan-29 11:00N 36°27' E 013°46'612.4
2018-Jan-29 10:30N 36°24' E 013°53'612.5
2018-Jan-29 10:01N 36°22' E 013°60'612.2
2018-Jan-29 09:30N 36°21' E 014°07'712.2
2018-Jan-29 08:58N 36°21' E 014°16'612.4
2018-Jan-29 08:29N 36°20' E 014°23'612.8
2018-Jan-29 08:00N 36°20' E 014°31'612.3
2018-Jan-29 07:29N 36°20' E 014°39'612.2
2018-Jan-29 06:59N 36°20' E 014°46'  
2018-Jan-26 10:07N 40°56' E 028°55'1 8.3
2018-Jan-26 10:00N 40°57' E 028°56'1 0.3
2018-Jan-26 05:31N 40°58' E 028°57'0 0.1
2018-Jan-26 05:29N 40°58' E 028°57'0 0.4
2018-Jan-26 04:58N 40°58' E 028°57'2 3.2
2018-Jan-26 04:29N 40°59' E 028°59'32210.2
2018-Jan-24 20:46N 46°08' E 031°03'311.5
2018-Jan-24 20:28N 46°11' E 030°60'511.5
2018-Jan-24 20:00N 46°15' E 030°55'510.5
2018-Jan-24 19:30N 46°20' E 030°55'611.7
2018-Jan-24 18:59N 46°26' E 030°55'510.1
2018-Jan-24 18:30N 46°31' E 030°55'4 7.2
2018-Jan-24 18:00N 46°33' E 030°59'4 8.0
2018-Jan-24 17:30N 46°34' E 031°05'2 3.8
2018-Jan-24 16:58N 46°35' E 031°08'0 0.0
2018-Jan-24 16:28N 46°35' E 031°08'0 0.0
2018-Jan-24 15:58N 46°35' E 031°08'0 0.0
2018-Jan-24 15:25N 46°35' E 031°08'0 0.0
2018-Jan-24 14:58N 46°35' E 031°08'0 0.0
2018-Jan-24 14:28N 46°35' E 031°08'0 0.0
2018-Jan-24 13:58N 46°35' E 031°08'0 0.0
2018-Jan-24 13:28N 46°35' E 031°08'0 0.0
2018-Jan-24 12:58N 46°35' E 031°08'0 0.0
2018-Jan-24 12:28N 46°35' E 031°08'0 0.0
2018-Jan-24 11:58N 46°35' E 031°08'0 0.0
2018-Jan-24 11:28N 46°35' E 031°08'0 0.0
2018-Jan-24 10:58N 46°35' E 031°08'0 0.0
2018-Jan-24 10:28N 46°35' E 031°08'0 0.0
2018-Jan-24 09:58N 46°35' E 031°08'0 0.0
2018-Jan-24 09:22N 46°35' E 031°08'0 0.0
2018-Jan-24 08:58N 46°35' E 031°08'0 0.0
2018-Jan-24 08:28N 46°35' E 031°08'0 0.0
2018-Jan-24 07:58N 46°35' E 031°08'0 0.0
2018-Jan-24 07:28N 46°35' E 031°08'0 0.0
2018-Jan-24 06:58N 46°35' E 031°08'0 0.0
2018-Jan-24 06:28N 46°35' E 031°08'0 0.0
2018-Jan-24 05:58N 46°35' E 031°08'0 0.0
2018-Jan-24 05:28N 46°35' E 031°08'0 0.0
2018-Jan-24 04:58N 46°35' E 031°08'0 0.0
2018-Jan-24 04:28N 46°35' E 031°08'0 0.0
2018-Jan-24 03:58N 46°35' E 031°08'0 0.0
2018-Jan-24 03:28N 46°35' E 031°08'0 0.0
2018-Jan-24 02:58N 46°35' E 031°08'0 0.0
2018-Jan-24 02:28N 46°35' E 031°08'0 0.0
2018-Jan-24 01:58N 46°35' E 031°08'0 0.0
2018-Jan-24 01:28N 46°35' E 031°08'0 0.0
2018-Jan-24 00:46N 46°35' E 031°08'0 0.0
2018-Jan-24 00:28N 46°35' E 031°08'0 0.0
2018-Jan-23 23:58N 46°35' E 031°08'0 0.0
2018-Jan-23 23:25N 46°35' E 031°08'0 0.0
2018-Jan-23 22:58N 46°35' E 031°08'0 0.0
2018-Jan-23 22:25N 46°35' E 031°08'0 0.0
2018-Jan-23 21:58N 46°35' E 031°08'0 0.0
2018-Jan-23 21:28N 46°35' E 031°08'0 0.0
2018-Jan-23 20:58N 46°35' E 031°08'0 0.0
2018-Jan-23 20:28N 46°35' E 031°08'0 0.0
2018-Jan-23 19:58N 46°35' E 031°08'0 0.0
2018-Jan-23 19:28N 46°35' E 031°08'0 0.0
2018-Jan-23 18:58N 46°35' E 031°08'0 0.0
2018-Jan-23 03:31N 46°35' E 031°08'0 0.1
2018-Jan-23 03:28N 46°35' E 031°08'0 0.0
2018-Jan-23 02:58N 46°35' E 031°08'0 0.0
2018-Jan-23 02:28N 46°35' E 031°08'0 0.0
2018-Jan-23 01:58N 46°35' E 031°08'0 0.0
2018-Jan-23 01:28N 46°35' E 031°08'0 0.0
2018-Jan-23 00:58N 46°35' E 031°08'0 0.0
2018-Jan-23 00:28N 46°35' E 031°08'0 0.0
2018-Jan-22 23:58N 46°35' E 031°08'0 0.0
2018-Jan-22 23:28N 46°35' E 031°08'0 0.0
2018-Jan-22 22:58N 46°35' E 031°08'0 0.0
2018-Jan-22 22:28N 46°34' E 031°08'0 0.0
2018-Jan-22 21:58N 46°34' E 031°08'0 0.0
2018-Jan-22 21:28N 46°34' E 031°08'0 0.1
2018-Jan-22 20:55N 46°34' E 031°08'0 0.1
2018-Jan-22 20:28N 46°34' E 031°08'0 0.0
2018-Jan-22 19:55N 46°34' E 031°08'0 0.0
2018-Jan-22 19:28N 46°34' E 031°08'0 0.0
2018-Jan-22 18:58N 46°34' E 031°08'0 0.0
2018-Jan-22 18:28N 46°34' E 031°08'0 0.0
2018-Jan-22 17:58N 46°34' E 031°08'0 0.0
2018-Jan-22 17:28N 46°34' E 031°08'0 0.0
2018-Jan-22 16:58N 46°34' E 031°08'0 0.0
2018-Jan-22 16:28N 46°34' E 031°08'0 0.0
2018-Jan-22 15:58N 46°34' E 031°08'0 0.0
2018-Jan-22 15:28N 46°34' E 031°08'0 0.0
2018-Jan-22 14:58N 46°34' E 031°08'0 0.0
2018-Jan-22 14:28N 46°34' E 031°07'0 0.0
2018-Jan-22 13:58N 46°34' E 031°07'0 0.0
2018-Jan-22 13:28N 46°34' E 031°07'0 0.0
2018-Jan-22 12:58N 46°34' E 031°07'0 0.0
2018-Jan-22 12:28N 46°34' E 031°07'0 0.0
2018-Jan-22 11:58N 46°34' E 031°07'0 0.1
2018-Jan-22 11:28N 46°35' E 031°07'0 0.0
2018-Jan-22 10:49N 46°35' E 031°07'0 0.0
2018-Jan-22 10:28N 46°35' E 031°07'0 0.0
2018-Jan-22 09:58N 46°35' E 031°07'0 0.0
2018-Jan-22 09:25N 46°35' E 031°07'0 0.0
2018-Jan-22 08:52N 46°35' E 031°07'0 0.0
2018-Jan-22 08:25N 46°35' E 031°07'0 0.0
2018-Jan-22 07:55N 46°35' E 031°07'0 0.0
2018-Jan-22 07:25N 46°35' E 031°07'0 0.0
2018-Jan-22 06:55N 46°35' E 031°07'0 0.0
2018-Jan-22 06:13N 46°35' E 031°07'0 0.0
2018-Jan-22 05:58N 46°35' E 031°07'0 0.0
2018-Jan-22 05:25N 46°35' E 031°07'0 0.0
2018-Jan-22 04:58N 46°35' E 031°07'0 0.0
2018-Jan-22 04:28N 46°35' E 031°07'0 0.0
2018-Jan-22 03:55N 46°35' E 031°07'0 0.0
2018-Jan-22 03:07N 46°35' E 031°07'0 0.0
2018-Jan-22 02:55N 46°35' E 031°07'0 0.0
2018-Jan-22 02:25N 46°35' E 031°07'0 0.0
2018-Jan-22 01:58N 46°35' E 031°07'0 0.0
2018-Jan-22 01:22N 46°35' E 031°07'0 0.0
2018-Jan-22 00:58N 46°35' E 031°07'0 0.0
2018-Jan-22 00:28N 46°35' E 031°07'0 0.0
2018-Jan-21 23:52N 46°35' E 031°07'0 0.0
2018-Jan-21 23:28N 46°35' E 031°07'0 0.0
2018-Jan-21 22:52N 46°35' E 031°07'0 0.0
2018-Jan-21 22:28N 46°35' E 031°07'0 0.0
2018-Jan-21 21:40N 46°35' E 031°07'0 0.0
2018-Jan-21 21:28N 46°35' E 031°07'0 0.0
2018-Jan-21 20:52N 46°35' E 031°07'0 0.0
2018-Jan-21 20:28N 46°35' E 031°07'0 0.1
2018-Jan-21 19:58N 46°35' E 031°07'0 0.0
2018-Jan-21 19:28N 46°35' E 031°07'0 0.0
2018-Jan-21 18:58N 46°35' E 031°08'0 0.0
2018-Jan-21 18:28N 46°35' E 031°08'0 0.1
2018-Jan-21 17:55N 46°35' E 031°08'0 0.1
2018-Jan-21 17:22N 46°35' E 031°08'0 0.0
2018-Jan-21 16:58N 46°35' E 031°08'0 0.0
2018-Jan-21 16:25N 46°35' E 031°08'0 0.0
2018-Jan-21 15:55N 46°35' E 031°08'0 0.1
2018-Jan-21 15:28N 46°35' E 031°08'  
Track history (hours):
 
Tides and Currents Weather Stations Pressure Air Temp Water Temp Dewpoint Dewpoint Depression Visibility Wind Speed Wind Dir Waves Ship Positions

Ultra Colonsay

Last reported at 2018-Jan-31 15:12 UTC. Time now 2018-Feb-20 04:00 UTC.
Position N 40°57' E 001°38'.
Warning: this ship's position is 19 days out of date.

Length 200 m; draft 12.4 m.

Type: Cargo ship. MMSI: 371011000.

Date/timePositionNaut miles runAvg speedWind from/ knotsBaromVisibWave heightAir tempDewpointWater temp
2018-Jan-31 15:12N 40°57' E 001°38'211.7
2018-Jan-31 15:00N 40°57' E 001°41'712.0
2018-Jan-31 14:23N 40°54' E 001°50'61912.1
2018-Jan-29 11:00N 36°27' E 013°46'612.4
2018-Jan-29 10:30N 36°24' E 013°53'612.5
2018-Jan-29 10:01N 36°22' E 013°60'612.2
2018-Jan-29 09:30N 36°21' E 014°07'712.2
2018-Jan-29 08:58N 36°21' E 014°16'612.4
2018-Jan-29 08:29N 36°20' E 014°23'612.8
2018-Jan-29 08:00N 36°20' E 014°31'612.3
2018-Jan-29 07:29N 36°20' E 014°39'612.2
2018-Jan-29 06:59N 36°20' E 014°46'  
2018-Jan-26 10:07N 40°56' E 028°55'1 8.3
2018-Jan-26 10:00N 40°57' E 028°56'1 0.3
2018-Jan-26 05:31N 40°58' E 028°57'0 0.1
2018-Jan-26 05:29N 40°58' E 028°57'0 0.4
2018-Jan-26 04:58N 40°58' E 028°57'2 3.2
2018-Jan-26 04:29N 40°59' E 028°59'32210.2
2018-Jan-24 20:46N 46°08' E 031°03'311.5
2018-Jan-24 20:28N 46°11' E 030°60'511.5
2018-Jan-24 20:00N 46°15' E 030°55'510.5
2018-Jan-24 19:30N 46°20' E 030°55'611.7
2018-Jan-24 18:59N 46°26' E 030°55'510.1
2018-Jan-24 18:30N 46°31' E 030°55'4 7.2
2018-Jan-24 18:00N 46°33' E 030°59'4 8.0
2018-Jan-24 17:30N 46°34' E 031°05'2 3.8
2018-Jan-24 16:58N 46°35' E 031°08'0 0.0
2018-Jan-24 16:28N 46°35' E 031°08'0 0.0
2018-Jan-24 15:58N 46°35' E 031°08'0 0.0
2018-Jan-24 15:25N 46°35' E 031°08'0 0.0
2018-Jan-24 14:58N 46°35' E 031°08'0 0.0
2018-Jan-24 14:28N 46°35' E 031°08'0 0.0
2018-Jan-24 13:58N 46°35' E 031°08'0 0.0
2018-Jan-24 13:28N 46°35' E 031°08'0 0.0
2018-Jan-24 12:58N 46°35' E 031°08'0 0.0
2018-Jan-24 12:28N 46°35' E 031°08'0 0.0
2018-Jan-24 11:58N 46°35' E 031°08'0 0.0
2018-Jan-24 11:28N 46°35' E 031°08'0 0.0
2018-Jan-24 10:58N 46°35' E 031°08'0 0.0
2018-Jan-24 10:28N 46°35' E 031°08'0 0.0
2018-Jan-24 09:58N 46°35' E 031°08'0 0.0
2018-Jan-24 09:22N 46°35' E 031°08'0 0.0
2018-Jan-24 08:58N 46°35' E 031°08'0 0.0
2018-Jan-24 08:28N 46°35' E 031°08'0 0.0
2018-Jan-24 07:58N 46°35' E 031°08'0 0.0
2018-Jan-24 07:28N 46°35' E 031°08'0 0.0
2018-Jan-24 06:58N 46°35' E 031°08'0 0.0
2018-Jan-24 06:28N 46°35' E 031°08'0 0.0
2018-Jan-24 05:58N 46°35' E 031°08'0 0.0
2018-Jan-24 05:28N 46°35' E 031°08'0 0.0
2018-Jan-24 04:58N 46°35' E 031°08'0 0.0
2018-Jan-24 04:28N 46°35' E 031°08'0 0.0
2018-Jan-24 03:58N 46°35' E 031°08'0 0.0
2018-Jan-24 03:28N 46°35' E 031°08'0 0.0
2018-Jan-24 02:58N 46°35' E 031°08'0 0.0
2018-Jan-24 02:28N 46°35' E 031°08'0 0.0
2018-Jan-24 01:58N 46°35' E 031°08'0 0.0
2018-Jan-24 01:28N 46°35' E 031°08'0 0.0
2018-Jan-24 00:46N 46°35' E 031°08'0 0.0
2018-Jan-24 00:28N 46°35' E 031°08'0 0.0
2018-Jan-23 23:58N 46°35' E 031°08'0 0.0
2018-Jan-23 23:25N 46°35' E 031°08'0 0.0
2018-Jan-23 22:58N 46°35' E 031°08'0 0.0
2018-Jan-23 22:25N 46°35' E 031°08'0 0.0
2018-Jan-23 21:58N 46°35' E 031°08'0 0.0
2018-Jan-23 21:28N 46°35' E 031°08'0 0.0
2018-Jan-23 20:58N 46°35' E 031°08'0 0.0
2018-Jan-23 20:28N 46°35' E 031°08'0 0.0
2018-Jan-23 19:58N 46°35' E 031°08'0 0.0
2018-Jan-23 19:28N 46°35' E 031°08'0 0.0
2018-Jan-23 18:58N 46°35' E 031°08'0 0.0
2018-Jan-23 03:31N 46°35' E 031°08'0 0.1
2018-Jan-23 03:28N 46°35' E 031°08'0 0.0
2018-Jan-23 02:58N 46°35' E 031°08'0 0.0
2018-Jan-23 02:28N 46°35' E 031°08'0 0.0
2018-Jan-23 01:58N 46°35' E 031°08'0 0.0
2018-Jan-23 01:28N 46°35' E 031°08'0 0.0
2018-Jan-23 00:58N 46°35' E 031°08'0 0.0
2018-Jan-23 00:28N 46°35' E 031°08'0 0.0
2018-Jan-22 23:58N 46°35' E 031°08'0 0.0
2018-Jan-22 23:28N 46°35' E 031°08'0 0.0
2018-Jan-22 22:58N 46°35' E 031°08'0 0.0
2018-Jan-22 22:28N 46°34' E 031°08'0 0.0
2018-Jan-22 21:58N 46°34' E 031°08'0 0.0
2018-Jan-22 21:28N 46°34' E 031°08'0 0.1
2018-Jan-22 20:55N 46°34' E 031°08'0 0.1
2018-Jan-22 20:28N 46°34' E 031°08'0 0.0
2018-Jan-22 19:55N 46°34' E 031°08'0 0.0
2018-Jan-22 19:28N 46°34' E 031°08'0 0.0
2018-Jan-22 18:58N 46°34' E 031°08'0 0.0
2018-Jan-22 18:28N 46°34' E 031°08'0 0.0
2018-Jan-22 17:58N 46°34' E 031°08'0 0.0
2018-Jan-22 17:28N 46°34' E 031°08'0 0.0
2018-Jan-22 16:58N 46°34' E 031°08'0 0.0
2018-Jan-22 16:28N 46°34' E 031°08'0 0.0
2018-Jan-22 15:58N 46°34' E 031°08'0 0.0
2018-Jan-22 15:28N 46°34' E 031°08'0 0.0
2018-Jan-22 14:58N 46°34' E 031°08'0 0.0
2018-Jan-22 14:28N 46°34' E 031°07'0 0.0
2018-Jan-22 13:58N 46°34' E 031°07'0 0.0
2018-Jan-22 13:28N 46°34' E 031°07'0 0.0
2018-Jan-22 12:58N 46°34' E 031°07'0 0.0
2018-Jan-22 12:28N 46°34' E 031°07'0 0.0
2018-Jan-22 11:58N 46°34' E 031°07'0 0.1
2018-Jan-22 11:28N 46°35' E 031°07'0 0.0
2018-Jan-22 10:49N 46°35' E 031°07'0 0.0
2018-Jan-22 10:28N 46°35' E 031°07'0 0.0
2018-Jan-22 09:58N 46°35' E 031°07'0 0.0
2018-Jan-22 09:25N 46°35' E 031°07'0 0.0
2018-Jan-22 08:52N 46°35' E 031°07'0 0.0
2018-Jan-22 08:25N 46°35' E 031°07'0 0.0
2018-Jan-22 07:55N 46°35' E 031°07'0 0.0
2018-Jan-22 07:25N 46°35' E 031°07'0 0.0
2018-Jan-22 06:55N 46°35' E 031°07'0 0.0
2018-Jan-22 06:13N 46°35' E 031°07'0 0.0
2018-Jan-22 05:58N 46°35' E 031°07'0 0.0
2018-Jan-22 05:25N 46°35' E 031°07'0 0.0
2018-Jan-22 04:58N 46°35' E 031°07'0 0.0
2018-Jan-22 04:28N 46°35' E 031°07'0 0.0
2018-Jan-22 03:55N 46°35' E 031°07'0 0.0
2018-Jan-22 03:07N 46°35' E 031°07'0 0.0
2018-Jan-22 02:55N 46°35' E 031°07'0 0.0
2018-Jan-22 02:25N 46°35' E 031°07'0 0.0
2018-Jan-22 01:58N 46°35' E 031°07'0 0.0
2018-Jan-22 01:22N 46°35' E 031°07'0 0.0
2018-Jan-22 00:58N 46°35' E 031°07'0 0.0
2018-Jan-22 00:28N 46°35' E 031°07'0 0.0
2018-Jan-21 23:52N 46°35' E 031°07'0 0.0
2018-Jan-21 23:28N 46°35' E 031°07'0 0.0
2018-Jan-21 22:52N 46°35' E 031°07'0 0.0
2018-Jan-21 22:28N 46°35' E 031°07'0 0.0
2018-Jan-21 21:40N 46°35' E 031°07'0 0.0
2018-Jan-21 21:28N 46°35' E 031°07'0 0.0
2018-Jan-21 20:52N 46°35' E 031°07'0 0.0
2018-Jan-21 20:28N 46°35' E 031°07'0 0.1
2018-Jan-21 19:58N 46°35' E 031°07'0 0.0
2018-Jan-21 19:28N 46°35' E 031°07'0 0.0
2018-Jan-21 18:58N 46°35' E 031°08'0 0.0
2018-Jan-21 18:28N 46°35' E 031°08'0 0.1
2018-Jan-21 17:55N 46°35' E 031°08'0 0.1
2018-Jan-21 17:22N 46°35' E 031°08'0 0.0
2018-Jan-21 16:58N 46°35' E 031°08'0 0.0
2018-Jan-21 16:25N 46°35' E 031°08'0 0.0
2018-Jan-21 15:55N 46°35' E 031°08'0 0.1
2018-Jan-21 15:28N 46°35' E 031°08'  

Dump ship's entire track history